Orbital elements of SL-12 R/B(2)
| Launched | 19 May 1994 |
| Flight ended | – |
| Launch site | Tyuratam Missile and Space Center, Kazakhstan (Also known as Baikonur Cosmodrome) |
| Owner | Commonwealth of Independent States (former USSR) |
| NORAD ID | 23111 |
| Date fetched |
Epoch osculation |
Inc. [°] |
Ecc. | RA asc node [hr] |
Arg Peri. [°] |
Mean anom [°] |
Mean motion [rev/day] |
Abs. mag |
| Date fetched |
Epoch osculation |
Inc. [°] |
Ecc. | RA asc node [hr] |
Arg Peri. [°] |
Mean anom [°] |
Mean motion [rev/day] |
Abs. mag |
| 2026 May 04 17:57 | 2026 Apr 30 05:52:58 | 12.6276 | 0.00437 | 22.8967 | 191.7345 | 350.4295 | 1.03839 | 5.243 |
| 2026 May 03 17:57 | 2026 Apr 30 05:52:58 | 12.6276 | 0.00437 | 22.8967 | 191.7345 | 350.4295 | 1.03839 | 5.243 |
| 2026 May 02 17:57 | 2026 Apr 30 05:52:58 | 12.6276 | 0.00437 | 22.8967 | 191.7345 | 350.4295 | 1.03839 | 5.243 |
| 2026 May 01 17:56 | 2026 Apr 30 05:52:58 | 12.6276 | 0.00437 | 22.8967 | 191.7345 | 350.4295 | 1.03839 | 5.243 |
| 2026 Apr 30 17:56 | 2026 Apr 30 05:52:58 | 12.6276 | 0.00437 | 22.8967 | 191.7345 | 350.4295 | 1.03839 | 5.243 |
| 2026 Apr 29 17:57 | 2026 Apr 24 10:55:08 | 12.6311 | 0.00436 | 22.8996 | 191.5305 | 350.4295 | 1.03839 | 5.243 |
| 2026 Apr 28 17:56 | 2026 Apr 24 10:55:08 | 12.6311 | 0.00436 | 22.8996 | 191.5305 | 350.4295 | 1.03839 | 5.243 |
| 2026 Apr 27 17:58 | 2026 Apr 24 10:55:08 | 12.6311 | 0.00436 | 22.8996 | 191.5305 | 350.4295 | 1.03839 | 5.243 |
| 2026 Apr 26 17:58 | 2026 Apr 24 10:55:08 | 12.6311 | 0.00436 | 22.8996 | 191.5305 | 350.4295 | 1.03839 | 5.243 |
| 2026 Apr 25 17:58 | 2026 Apr 24 10:55:08 | 12.6311 | 0.00436 | 22.8996 | 191.5305 | 350.4295 | 1.03839 | 5.243 |
| 2026 Apr 24 17:59 | 2026 Apr 24 10:55:08 | 12.6311 | 0.00436 | 22.8996 | 191.5305 | 350.4295 | 1.03839 | 5.243 |
| 2026 Apr 23 17:57 | 2026 Apr 18 17:12:38 | 12.6346 | 0.00435 | 22.9027 | 191.4544 | 350.4295 | 1.03839 | 5.243 |
| 2026 Apr 22 17:57 | 2026 Apr 18 17:12:38 | 12.6346 | 0.00435 | 22.9027 | 191.4544 | 350.4295 | 1.03839 | 5.243 |
| 2026 Apr 21 17:57 | 2026 Apr 18 17:12:38 | 12.6346 | 0.00435 | 22.9027 | 191.4544 | 350.4295 | 1.03839 | 5.243 |
| 2026 Apr 20 17:57 | 2026 Apr 18 17:12:38 | 12.6346 | 0.00435 | 22.9027 | 191.4544 | 350.4295 | 1.03839 | 5.243 |
| 2026 Apr 19 17:58 | 2026 Apr 18 17:12:38 | 12.6346 | 0.00435 | 22.9027 | 191.4544 | 350.4295 | 1.03839 | 5.243 |
| 2026 Apr 18 17:56 | 2026 Apr 12 22:42:24 | 12.6382 | 0.00435 | 22.9057 | 191.4996 | 350.4295 | 1.03839 | 5.243 |
| 2026 Apr 16 17:57 | 2026 Apr 12 22:42:24 | 12.6382 | 0.00435 | 22.9057 | 191.4996 | 350.4295 | 1.03839 | 5.243 |
| 2026 Apr 14 17:57 | 2026 Apr 12 22:42:24 | 12.6382 | 0.00435 | 22.9057 | 191.4996 | 350.4295 | 1.03839 | 5.243 |
| 2026 Apr 13 17:57 | 2026 Apr 12 22:42:24 | 12.6382 | 0.00435 | 22.9057 | 191.4996 | 350.4295 | 1.03839 | 5.243 |
| 2026 Apr 12 17:57 | 2026 Apr 08 08:35:21 | 12.6410 | 0.00435 | 22.9080 | 191.5032 | 350.4295 | 1.03839 | 5.243 |
| 2026 Apr 11 17:57 | 2026 Apr 08 08:35:21 | 12.6410 | 0.00435 | 22.9080 | 191.5032 | 350.4295 | 1.03839 | 5.243 |
| 2026 Apr 10 17:58 | 2026 Apr 08 08:35:21 | 12.6410 | 0.00435 | 22.9080 | 191.5032 | 350.4295 | 1.03839 | 5.243 |
| 2026 Apr 09 18:01 | 2026 Apr 08 08:35:21 | 12.6410 | 0.00435 | 22.9080 | 191.5032 | 350.4295 | 1.03839 | 5.243 |
| 2026 Apr 08 17:57 | 2026 Apr 08 08:35:21 | 12.6410 | 0.00435 | 22.9080 | 191.5032 | 350.4295 | 1.03839 | 5.243 |
| 2026 Apr 07 17:57 | 2026 Apr 01 08:24:16 | 12.6453 | 0.00436 | 22.9115 | 191.2428 | 350.4295 | 1.03839 | 5.243 |